sensor_id;sensor_type;location;lat;lon;timestamp;pressure;altitude;pressure_sealevel;temperature;humidity
21086;BME280;34247;50.064;19.970;2023-03-03T00:00:21;99576.06;;;3.23;77.74
21086;BME280;34247;50.064;19.970;2023-03-03T00:01:25;99573.50;;;3.21;78.04
21086;BME280;34247;50.064;19.970;2023-03-03T00:02:29;99570.94;;;3.20;78.08
21086;BME280;34247;50.064;19.970;2023-03-03T00:03:33;99572.69;;;3.19;77.87
21086;BME280;34247;50.064;19.970;2023-03-03T00:04:37;99569.22;;;3.19;78.06
21086;BME280;34247;50.064;19.970;2023-03-03T00:05:42;99574.47;;;3.19;78.12
21086;BME280;34247;50.064;19.970;2023-03-03T00:06:46;99568.38;;;3.17;78.33
21086;BME280;34247;50.064;19.970;2023-03-03T00:07:51;99571.00;;;3.17;78.22
21086;BME280;34247;50.064;19.970;2023-03-03T00:08:58;99569.31;;;3.16;78.18
21086;BME280;34247;50.064;19.970;2023-03-03T00:10:02;99571.97;;;3.14;78.51
21086;BME280;34247;50.064;19.970;2023-03-03T00:11:07;99568.44;;;3.15;78.57
21086;BME280;34247;50.064;19.970;2023-03-03T00:12:24;99567.59;;;3.15;78.69
21086;BME280;34247;50.064;19.970;2023-03-03T00:13:30;99568.50;;;3.14;78.45
21086;BME280;34247;50.064;19.970;2023-03-03T00:14:36;99570.28;;;3.13;78.69
21086;BME280;34247;50.064;19.970;2023-03-03T00:15:40;99568.56;;;3.12;78.68
21086;BME280;34247;50.064;19.970;2023-03-03T00:16:48;99567.66;;;3.13;78.78
21086;BME280;34247;50.064;19.970;2023-03-03T00:17:53;99565.03;;;3.13;78.88
21086;BME280;34247;50.064;19.970;2023-03-03T00:18:57;99564.25;;;3.10;78.79
21086;BME280;34247;50.064;19.970;2023-03-03T00:20:31;99565.28;;;3.06;79.18
21086;BME280;34247;50.064;19.970;2023-03-03T00:21:45;99571.38;;;3.06;79.41
21086;BME280;34247;50.064;19.970;2023-03-03T00:22:51;99557.41;;;3.06;79.26
21086;BME280;34247;50.064;19.970;2023-03-03T00:25:30;99557.50;;;3.02;79.11
21086;BME280;34247;50.064;19.970;2023-03-03T00:26:39;99560.13;;;3.02;79.16
21086;BME280;34247;50.064;19.970;2023-03-03T00:27:43;99559.31;;;3.00;79.24
21086;BME280;34247;50.064;19.970;2023-03-03T00:28:50;99561.03;;;3.01;79.30
21086;BME280;34247;50.064;19.970;2023-03-03T00:29:58;99557.63;;;2.99;79.42
21086;BME280;34247;50.064;19.970;2023-03-03T00:31:17;99562.91;;;2.98;79.32
21086;BME280;34247;50.064;19.970;2023-03-03T00:32:26;99555.00;;;2.99;79.24
21086;BME280;34247;50.064;19.970;2023-03-03T00:33:42;99566.41;;;2.98;79.35
21086;BME280;34247;50.064;19.970;2023-03-03T00:34:50;99563.81;;;2.97;79.16
21086;BME280;34247;50.064;19.970;2023-03-03T00:35:59;99554.22;;;2.96;79.12
21086;BME280;34247;50.064;19.970;2023-03-03T00:37:32;99557.81;;;2.93;79.52
21086;BME280;34247;50.064;19.970;2023-03-03T00:38:37;99554.41;;;2.91;79.19
21086;BME280;34247;50.064;19.970;2023-03-03T00:39:41;99557.00;;;2.91;79.00
21086;BME280;34247;50.064;19.970;2023-03-03T00:40:47;99545.69;;;2.89;79.04
21086;BME280;34247;50.064;19.970;2023-03-03T00:41:51;99544.00;;;2.88;79.38
21086;BME280;34247;50.064;19.970;2023-03-03T00:42:58;99555.34;;;2.89;79.29
21086;BME280;34247;50.064;19.970;2023-03-03T00:44:45;99551.06;;;2.86;79.47
21086;BME280;34247;50.064;19.970;2023-03-03T00:45:52;99549.34;;;2.85;79.42
21086;BME280;34247;50.064;19.970;2023-03-03T00:47:24;99544.19;;;2.82;79.62
21086;BME280;34247;50.064;19.970;2023-03-03T00:49:41;99550.34;;;2.81;79.48
21086;BME280;34247;50.064;19.970;2023-03-03T00:50:45;99539.84;;;2.81;79.49
21086;BME280;34247;50.064;19.970;2023-03-03T00:51:49;99532.09;;;2.78;79.78
21086;BME280;34247;50.064;19.970;2023-03-03T00:53:12;99533.81;;;2.79;79.88
21086;BME280;34247;50.064;19.970;2023-03-03T00:54:16;99533.75;;;2.81;79.75
21086;BME280;34247;50.064;19.970;2023-03-03T00:55:20;99537.28;;;2.80;79.72
21086;BME280;34247;50.064;19.970;2023-03-03T00:56:25;99532.97;;;2.79;79.63
21086;BME280;34247;50.064;19.970;2023-03-03T00:57:30;99537.34;;;2.78;79.92
21086;BME280;34247;50.064;19.970;2023-03-03T00:58:33;99539.97;;;2.78;79.71
21086;BME280;34247;50.064;19.970;2023-03-03T00:59:38;99535.72;;;2.74;79.87
21086;BME280;34247;50.064;19.970;2023-03-03T01:00:42;99531.31;;;2.74;79.77
21086;BME280;34247;50.064;19.970;2023-03-03T01:01:46;99533.09;;;2.74;79.62
21086;BME280;34247;50.064;19.970;2023-03-03T01:02:51;99533.94;;;2.74;79.69
21086;BME280;34247;50.064;19.970;2023-03-03T01:03:55;99534.84;;;2.73;79.72
21086;BME280;34247;50.064;19.970;2023-03-03T01:04:59;99541.88;;;2.73;79.67
21086;BME280;34247;50.064;19.970;2023-03-03T01:06:03;99533.28;;;2.68;79.33
21086;BME280;34247;50.064;19.970;2023-03-03T01:07:07;99533.25;;;2.69;79.54
21086;BME280;34247;50.064;19.970;2023-03-03T01:08:12;99535.06;;;2.67;79.42
21086;BME280;34247;50.064;19.970;2023-03-03T01:09:16;99542.06;;;2.67;79.55
21086;BME280;34247;50.064;19.970;2023-03-03T01:10:20;99537.72;;;2.66;79.69
21086;BME280;34247;50.064;19.970;2023-03-03T01:11:25;99538.69;;;2.63;79.61
21086;BME280;34247;50.064;19.970;2023-03-03T01:12:31;99529.19;;;2.61;79.75
21086;BME280;34247;50.064;19.970;2023-03-03T01:13:38;99530.88;;;2.62;79.82
21086;BME280;34247;50.064;19.970;2023-03-03T01:14:43;99528.28;;;2.60;79.99
21086;BME280;34247;50.064;19.970;2023-03-03T01:15:48;99530.91;;;2.60;80.38
21086;BME280;34247;50.064;19.970;2023-03-03T01:16:53;99535.31;;;2.60;80.42
21086;BME280;34247;50.064;19.970;2023-03-03T01:17:57;99523.94;;;2.61;80.44
21086;BME280;34247;50.064;19.970;2023-03-03T01:19:01;99524.78;;;2.61;80.31
21086;BME280;34247;50.064;19.970;2023-03-03T01:20:08;99530.88;;;2.62;80.38
21086;BME280;34247;50.064;19.970;2023-03-03T01:21:15;99530.03;;;2.61;80.21
21086;BME280;34247;50.064;19.970;2023-03-03T01:22:19;99525.66;;;2.62;80.16
21086;BME280;34247;50.064;19.970;2023-03-03T01:23:22;99524.78;;;2.61;80.31
21086;BME280;34247;50.064;19.970;2023-03-03T01:24:26;99518.63;;;2.62;80.42
21086;BME280;34247;50.064;19.970;2023-03-03T01:25:30;99526.59;;;2.59;80.52
21086;BME280;34247;50.064;19.970;2023-03-03T01:26:33;99519.56;;;2.60;80.60
21086;BME280;34247;50.064;19.970;2023-03-03T01:27:39;99516.09;;;2.59;80.28
21086;BME280;34247;50.064;19.970;2023-03-03T01:28:43;99521.34;;;2.59;80.29
21086;BME280;34247;50.064;19.970;2023-03-03T01:29:50;99524.88;;;2.58;80.76
21086;BME280;34247;50.064;19.970;2023-03-03T01:30:59;99517.91;;;2.57;80.65
21086;BME280;34247;50.064;19.970;2023-03-03T01:32:04;99521.41;;;2.58;80.57
21086;BME280;34247;50.064;19.970;2023-03-03T01:33:09;99524.03;;;2.58;80.31
21086;BME280;34247;50.064;19.970;2023-03-03T01:34:13;99521.44;;;2.56;80.29
21086;BME280;34247;50.064;19.970;2023-03-03T01:35:17;99523.16;;;2.57;80.60
21086;BME280;34247;50.064;19.970;2023-03-03T01:36:26;99517.91;;;2.57;80.40
21086;BME280;34247;50.064;19.970;2023-03-03T01:37:34;99520.66;;;2.54;80.69
21086;BME280;34247;50.064;19.970;2023-03-03T01:38:39;99517.97;;;2.56;80.44
21086;BME280;34247;50.064;19.970;2023-03-03T01:39:47;99513.66;;;2.55;80.58
21086;BME280;34247;50.064;19.970;2023-03-03T01:40:57;99513.72;;;2.52;80.33
21086;BME280;34247;50.064;19.970;2023-03-03T01:42:02;99518.06;;;2.53;80.57
21086;BME280;34247;50.064;19.970;2023-03-03T01:43:14;99518.13;;;2.51;80.56
21086;BME280;34247;50.064;19.970;2023-03-03T01:44:18;99516.47;;;2.48;80.60
21086;BME280;34247;50.064;19.970;2023-03-03T01:48:26;99507.13;;;2.40;80.61
21086;BME280;34247;50.064;19.970;2023-03-03T01:50:08;99512.38;;;2.40;80.94
21086;BME280;34247;50.064;19.970;2023-03-03T01:51:25;99522.03;;;2.38;80.97
21086;BME280;34247;50.064;19.970;2023-03-03T01:52:37;99515.00;;;2.38;80.63
21086;BME280;34247;50.064;19.970;2023-03-03T01:53:55;99519.50;;;2.35;80.72
21086;BME280;34247;50.064;19.970;2023-03-03T01:55:16;99522.06;;;2.36;80.58
21086;BME280;34247;50.064;19.970;2023-03-03T01:56:21;99524.69;;;2.36;80.70
21086;BME280;34247;50.064;19.970;2023-03-03T01:57:35;99522.13;;;2.35;80.55
21086;BME280;34247;50.064;19.970;2023-03-03T01:59:12;99512.63;;;2.32;80.94
21086;BME280;34247;50.064;19.970;2023-03-03T02:00:17;99517.84;;;2.32;80.60
21086;BME280;34247;50.064;19.970;2023-03-03T02:01:26;99517.84;;;2.32;80.63
21086;BME280;34247;50.064;19.970;2023-03-03T02:02:31;99527.50;;;2.30;80.64
21086;BME280;34247;50.064;19.970;2023-03-03T02:03:35;99525.00;;;2.27;80.56
21086;BME280;34247;50.064;19.970;2023-03-03T02:04:39;99524.13;;;2.27;80.54
21086;BME280;34247;50.064;19.970;2023-03-03T02:05:43;99523.28;;;2.26;80.62
21086;BME280;34247;50.064;19.970;2023-03-03T02:06:55;99517.19;;;2.26;80.72
21086;BME280;34247;50.064;19.970;2023-03-03T02:08:01;99513.72;;;2.24;80.57
21086;BME280;34247;50.064;19.970;2023-03-03T02:09:36;99523.34;;;2.23;80.42
21086;BME280;34247;50.064;19.970;2023-03-03T02:10:45;99521.69;;;2.20;80.80
21086;BME280;34247;50.064;19.970;2023-03-03T02:11:54;99517.38;;;2.19;80.96
21086;BME280;34247;50.064;19.970;2023-03-03T02:12:59;99525.16;;;2.21;80.82
21086;BME280;34247;50.064;19.970;2023-03-03T02:14:03;99517.38;;;2.19;80.96
21086;BME280;34247;50.064;19.970;2023-03-03T02:15:29;99520.84;;;2.20;80.72
21086;BME280;34247;50.064;19.970;2023-03-03T02:16:39;99526.13;;;2.18;80.56
21086;BME280;34247;50.064;19.970;2023-03-03T02:17:44;99526.16;;;2.17;80.80
21086;BME280;34247;50.064;19.970;2023-03-03T02:18:48;99525.28;;;2.18;80.83
21086;BME280;34247;50.064;19.970;2023-03-03T02:20:13;99523.53;;;2.17;80.92
21086;BME280;34247;50.064;19.970;2023-03-03T02:21:22;99522.69;;;2.16;81.09
21086;BME280;34247;50.064;19.970;2023-03-03T02:22:56;99527.97;;;2.15;81.17
21086;BME280;34247;50.064;19.970;2023-03-03T02:26:52;99526.38;;;2.11;80.81
21086;BME280;34247;50.064;19.970;2023-03-03T02:27:56;99523.75;;;2.11;80.97
21086;BME280;34247;50.064;19.970;2023-03-03T02:29:00;99530.75;;;2.09;80.82
21086;BME280;34247;50.064;19.970;2023-03-03T02:30:24;99527.25;;;2.10;80.63
21086;BME280;34247;50.064;19.970;2023-03-03T02:31:30;99527.34;;;2.07;80.38
21086;BME280;34247;50.064;19.970;2023-03-03T02:32:34;99530.81;;;2.07;80.47
21086;BME280;34247;50.064;19.970;2023-03-03T02:33:43;99529.16;;;2.05;80.54
21086;BME280;34247;50.064;19.970;2023-03-03T02:34:51;99521.38;;;2.02;80.64
21086;BME280;34247;50.064;19.970;2023-03-03T02:35:56;99522.22;;;2.04;80.77
21086;BME280;34247;50.064;19.970;2023-03-03T02:37:05;99521.34;;;2.03;80.90
21086;BME280;34247;50.064;19.970;2023-03-03T02:38:25;99524.09;;;1.99;80.96
21086;BME280;34247;50.064;19.970;2023-03-03T02:39:30;99523.31;;;1.95;81.27
21086;BME280;34247;50.064;19.970;2023-03-03T02:40:41;99536.41;;;1.95;81.63
21086;BME280;34247;50.064;19.970;2023-03-03T02:43:22;99523.66;;;1.84;83.00
21086;BME280;34247;50.064;19.970;2023-03-03T02:44:31;99527.13;;;1.85;82.73
21086;BME280;34247;50.064;19.970;2023-03-03T02:45:42;99533.13;;;1.88;82.54
21086;BME280;34247;50.064;19.970;2023-03-03T02:46:48;99527.91;;;1.88;82.41
21086;BME280;34247;50.064;19.970;2023-03-03T02:47:52;99519.13;;;1.89;82.18
21086;BME280;34247;50.064;19.970;2023-03-03T02:48:59;99520.00;;;1.90;82.50
21086;BME280;34247;50.064;19.970;2023-03-03T02:50:03;99513.91;;;1.89;82.49
21086;BME280;34247;50.064;19.970;2023-03-03T02:51:07;99522.56;;;1.91;82.23
21086;BME280;34247;50.064;19.970;2023-03-03T02:52:12;99516.47;;;1.91;82.29
21086;BME280;34247;50.064;19.970;2023-03-03T02:53:17;99512.09;;;1.91;82.29
21086;BME280;34247;50.064;19.970;2023-03-03T02:54:24;99512.91;;;1.93;82.30
21086;BME280;34247;50.064;19.970;2023-03-03T02:55:28;99510.31;;;1.92;82.25
21086;BME280;34247;50.064;19.970;2023-03-03T02:56:32;99519.84;;;1.94;82.12
21086;BME280;34247;50.064;19.970;2023-03-03T02:57:36;99520.75;;;1.93;81.90
21086;BME280;34247;50.064;19.970;2023-03-03T02:58:41;99519.09;;;1.91;81.84
21086;BME280;34247;50.064;19.970;2023-03-03T02:59:44;99519.13;;;1.89;81.74
21086;BME280;34247;50.064;19.970;2023-03-03T03:00:49;99513.06;;;1.87;81.51
21086;BME280;34247;50.064;19.970;2023-03-03T03:01:52;99520.13;;;1.85;81.65
21086;BME280;34247;50.064;19.970;2023-03-03T03:02:57;99518.41;;;1.84;81.74
21086;BME280;34247;50.064;19.970;2023-03-03T03:04:12;99523.69;;;1.83;81.74
21086;BME280;34247;50.064;19.970;2023-03-03T03:05:15;99530.69;;;1.82;81.39
21086;BME280;34247;50.064;19.970;2023-03-03T03:06:19;99525.53;;;1.79;81.69
21086;BME280;34247;50.064;19.970;2023-03-03T03:07:23;99522.91;;;1.79;82.09
21086;BME280;34247;50.064;19.970;2023-03-03T03:08:27;99526.38;;;1.81;81.88
21086;BME280;34247;50.064;19.970;2023-03-03T03:09:30;99521.16;;;1.80;81.94
21086;BME280;34247;50.064;19.970;2023-03-03T03:10:35;99522.00;;;1.80;82.08
21086;BME280;34247;50.064;19.970;2023-03-03T03:11:39;99521.19;;;1.78;81.94
21086;BME280;34247;50.064;19.970;2023-03-03T03:12:43;99515.00;;;1.81;81.80
21086;BME280;34247;50.064;19.970;2023-03-03T03:13:47;99514.13;;;1.82;81.92
21086;BME280;34247;50.064;19.970;2023-03-03T03:14:51;99513.28;;;1.80;81.88
21086;BME280;34247;50.064;19.970;2023-03-03T03:15:54;99521.13;;;1.81;81.86
21086;BME280;34247;50.064;19.970;2023-03-03T03:16:58;99513.28;;;1.81;81.86
21086;BME280;34247;50.064;19.970;2023-03-03T03:18:03;99518.53;;;1.80;81.67
21086;BME280;34247;50.064;19.970;2023-03-03T03:19:07;99513.28;;;1.80;81.83
21086;BME280;34247;50.064;19.970;2023-03-03T03:20:11;99509.03;;;1.77;81.48
21086;BME280;34247;50.064;19.970;2023-03-03T03:21:16;99511.59;;;1.79;81.50
21086;BME280;34247;50.064;19.970;2023-03-03T03:22:20;99520.34;;;1.78;81.30
21086;BME280;34247;50.064;19.970;2023-03-03T03:23:24;99520.41;;;1.76;81.84
21086;BME280;34247;50.064;19.970;2023-03-03T03:24:28;99523.00;;;1.76;81.87
21086;BME280;34247;50.064;19.970;2023-03-03T03:25:32;99519.44;;;1.79;81.75
21086;BME280;34247;50.064;19.970;2023-03-03T03:26:35;99515.97;;;1.78;81.65
21086;BME280;34247;50.064;19.970;2023-03-03T03:27:39;99514.25;;;1.77;81.61
21086;BME280;34247;50.064;19.970;2023-03-03T03:28:43;99513.41;;;1.77;81.41
21086;BME280;34247;50.064;19.970;2023-03-03T03:29:46;99514.25;;;1.77;81.70
21086;BME280;34247;50.064;19.970;2023-03-03T03:30:50;99516.00;;;1.77;81.74
21086;BME280;34247;50.064;19.970;2023-03-03T03:31:54;99504.69;;;1.76;81.73
21086;BME280;34247;50.064;19.970;2023-03-03T03:32:58;99514.31;;;1.76;81.67
21086;BME280;34247;50.064;19.970;2023-03-03T03:34:02;99513.44;;;1.75;81.58
21086;BME280;34247;50.064;19.970;2023-03-03T03:35:06;99518.69;;;1.74;81.77
21086;BME280;34247;50.064;19.970;2023-03-03T03:36:10;99518.69;;;1.74;81.78
21086;BME280;34247;50.064;19.970;2023-03-03T03:37:14;99519.59;;;1.74;81.91
21086;BME280;34247;50.064;19.970;2023-03-03T03:38:18;99511.69;;;1.76;81.89
21086;BME280;34247;50.064;19.970;2023-03-03T03:39:22;99523.00;;;1.76;81.72
21086;BME280;34247;50.064;19.970;2023-03-03T03:40:26;99515.22;;;1.75;81.69
21086;BME280;34247;50.064;19.970;2023-03-03T03:41:30;99516.97;;;1.74;81.54
21086;BME280;34247;50.064;19.970;2023-03-03T03:42:34;99513.44;;;1.75;81.72
21086;BME280;34247;50.064;19.970;2023-03-03T03:43:38;99516.97;;;1.74;81.77
21086;BME280;34247;50.064;19.970;2023-03-03T03:44:42;99514.34;;;1.74;81.98
21086;BME280;34247;50.064;19.970;2023-03-03T03:45:46;99515.22;;;1.75;81.83
21086;BME280;34247;50.064;19.970;2023-03-03T03:46:50;99516.06;;;1.75;81.71
21086;BME280;34247;50.064;19.970;2023-03-03T03:47:54;99504.81;;;1.72;81.74
21086;BME280;34247;50.064;19.970;2023-03-03T03:48:58;99509.97;;;1.75;81.56
21086;BME280;34247;50.064;19.970;2023-03-03T03:50:02;99513.47;;;1.74;81.56
21086;BME280;34247;50.064;19.970;2023-03-03T03:51:06;99517.00;;;1.73;81.71
21086;BME280;34247;50.064;19.970;2023-03-03T03:52:10;99512.72;;;1.70;81.45
21086;BME280;34247;50.064;19.970;2023-03-03T03:53:16;99520.56;;;1.70;81.55
21086;BME280;34247;50.064;19.970;2023-03-03T03:54:23;99511.91;;;1.68;81.26
21086;BME280;34247;50.064;19.970;2023-03-03T03:55:27;99518.91;;;1.68;81.45
21086;BME280;34247;50.064;19.970;2023-03-03T03:56:31;99518.03;;;1.67;81.85
21086;BME280;34247;50.064;19.970;2023-03-03T03:57:35;99518.91;;;1.66;81.77
21086;BME280;34247;50.064;19.970;2023-03-03T03:58:40;99511.06;;;1.66;81.79
21086;BME280;34247;50.064;19.970;2023-03-03T03:59:44;99518.03;;;1.67;81.83
21086;BME280;34247;50.064;19.970;2023-03-03T04:00:48;99510.22;;;1.65;81.76
21086;BME280;34247;50.064;19.970;2023-03-03T04:01:52;99502.34;;;1.67;81.49
21086;BME280;34247;50.064;19.970;2023-03-03T04:02:57;99510.22;;;1.65;81.39
21086;BME280;34247;50.064;19.970;2023-03-03T04:04:02;99510.22;;;1.65;81.45
21086;BME280;34247;50.064;19.970;2023-03-03T04:05:08;99511.94;;;1.66;81.53
21086;BME280;34247;50.064;19.970;2023-03-03T04:06:15;99512.84;;;1.65;81.48
21086;BME280;34247;50.064;19.970;2023-03-03T04:07:18;99514.53;;;1.66;81.63
21086;BME280;34247;50.064;19.970;2023-03-03T04:08:22;99514.59;;;1.65;81.47
21086;BME280;34247;50.064;19.970;2023-03-03T04:09:26;99509.34;;;1.65;81.64
21086;BME280;34247;50.064;19.970;2023-03-03T04:10:30;99504.97;;;1.65;81.36
21086;BME280;34247;50.064;19.970;2023-03-03T04:11:34;99517.25;;;1.63;81.58
21086;BME280;34247;50.064;19.970;2023-03-03T04:12:38;99510.31;;;1.62;81.37
21086;BME280;34247;50.064;19.970;2023-03-03T04:13:43;99506.03;;;1.60;81.70
21086;BME280;34247;50.064;19.970;2023-03-03T04:14:47;99502.59;;;1.58;81.82
21086;BME280;34247;50.064;19.970;2023-03-03T04:15:50;99505.13;;;1.61;81.62
21086;BME280;34247;50.064;19.970;2023-03-03T04:16:55;99509.47;;;1.62;81.53
21086;BME280;34247;50.064;19.970;2023-03-03T04:17:59;99499.91;;;1.61;81.55
21086;BME280;34247;50.064;19.970;2023-03-03T04:19:03;99506.91;;;1.60;81.35
21086;BME280;34247;50.064;19.970;2023-03-03T04:20:11;99505.13;;;1.61;81.45
21086;BME280;34247;50.064;19.970;2023-03-03T04:21:15;99500.81;;;1.58;81.39
21086;BME280;34247;50.064;19.970;2023-03-03T04:22:19;99497.34;;;1.58;81.61
21086;BME280;34247;50.064;19.970;2023-03-03T04:23:23;99503.53;;;1.55;81.62
21086;BME280;34247;50.064;19.970;2023-03-03T04:24:29;99506.09;;;1.57;81.44
21086;BME280;34247;50.064;19.970;2023-03-03T04:25:33;99511.38;;;1.55;81.08
21086;BME280;34247;50.064;19.970;2023-03-03T04:26:37;99512.28;;;1.54;81.02
21086;BME280;34247;50.064;19.970;2023-03-03T04:27:42;99511.50;;;1.52;81.04
21086;BME280;34247;50.064;19.970;2023-03-03T04:28:46;99513.22;;;1.52;81.26
21086;BME280;34247;50.064;19.970;2023-03-03T04:29:50;99515.06;;;1.48;80.95
21086;BME280;34247;50.064;19.970;2023-03-03T04:30:54;99518.53;;;1.49;81.03
21086;BME280;34247;50.064;19.970;2023-03-03T04:31:58;99515.97;;;1.47;81.11
21086;BME280;34247;50.064;19.970;2023-03-03T04:33:04;99517.69;;;1.48;81.45
21086;BME280;34247;50.064;19.970;2023-03-03T04:34:10;99521.25;;;1.46;81.14
21086;BME280;34247;50.064;19.970;2023-03-03T04:35:14;99524.00;;;1.41;81.62
21086;BME280;34247;50.064;19.970;2023-03-03T04:36:19;99515.34;;;1.39;81.63
21086;BME280;34247;50.064;19.970;2023-03-03T04:37:23;99514.44;;;1.40;81.69
21086;BME280;34247;50.064;19.970;2023-03-03T04:38:27;99510.81;;;1.44;81.65
21086;BME280;34247;50.064;19.970;2023-03-03T04:39:30;99508.34;;;1.40;81.70
21086;BME280;34247;50.064;19.970;2023-03-03T04:40:35;99514.38;;;1.42;81.71
21086;BME280;34247;50.064;19.970;2023-03-03T04:41:39;99514.34;;;1.43;81.74
21086;BME280;34247;50.064;19.970;2023-03-03T04:42:43;99514.56;;;1.35;81.76
21086;BME280;34247;50.064;19.970;2023-03-03T04:43:47;99516.41;;;1.32;81.97
21086;BME280;34247;50.064;19.970;2023-03-03T04:44:51;99512.03;;;1.32;82.21
21086;BME280;34247;50.064;19.970;2023-03-03T04:45:55;99512.84;;;1.34;82.02
21086;BME280;34247;50.064;19.970;2023-03-03T04:46:58;99513.63;;;1.36;81.89
21086;BME280;34247;50.064;19.970;2023-03-03T04:48:03;99516.25;;;1.36;82.23
21086;BME280;34247;50.064;19.970;2023-03-03T04:49:07;99517.16;;;1.35;82.23
21086;BME280;34247;50.064;19.970;2023-03-03T04:50:15;99513.63;;;1.36;82.30
21086;BME280;34247;50.064;19.970;2023-03-03T04:51:19;99515.34;;;1.37;81.97
21086;BME280;34247;50.064;19.970;2023-03-03T04:52:23;99519.72;;;1.37;81.80
21086;BME280;34247;50.064;19.970;2023-03-03T04:53:27;99520.59;;;1.37;81.78
21086;BME280;34247;50.064;19.970;2023-03-03T04:54:31;99507.59;;;1.34;81.75
21086;BME280;34247;50.064;19.970;2023-03-03T04:55:36;99504.03;;;1.37;81.77
21086;BME280;34247;50.064;19.970;2023-03-03T04:56:40;99511.00;;;1.38;81.71
21086;BME280;34247;50.064;19.970;2023-03-03T04:57:44;99515.34;;;1.37;81.69
21086;BME280;34247;50.064;19.970;2023-03-03T04:58:48;99517.13;;;1.37;81.37
21086;BME280;34247;50.064;19.970;2023-03-03T04:59:52;99511.94;;;1.35;81.31
21086;BME280;34247;50.064;19.970;2023-03-03T05:00:56;99511.13;;;1.33;81.38
21086;BME280;34247;50.064;19.970;2023-03-03T05:02:01;99509.41;;;1.32;81.19
21086;BME280;34247;50.064;19.970;2023-03-03T05:03:07;99517.25;;;1.32;81.30
21086;BME280;34247;50.064;19.970;2023-03-03T05:04:13;99513.84;;;1.29;81.42
21086;BME280;34247;50.064;19.970;2023-03-03T05:05:17;99513.91;;;1.27;81.45
21086;BME280;34247;50.064;19.970;2023-03-03T05:06:21;99514.75;;;1.28;81.74
21086;BME280;34247;50.064;19.970;2023-03-03T05:07:25;99519.13;;;1.27;81.94
21086;BME280;34247;50.064;19.970;2023-03-03T05:08:29;99522.66;;;1.26;82.13
21086;BME280;34247;50.064;19.970;2023-03-03T05:09:32;99526.16;;;1.25;82.09
21086;BME280;34247;50.064;19.970;2023-03-03T05:10:36;99521.78;;;1.26;82.24
21086;BME280;34247;50.064;19.970;2023-03-03T05:11:40;99522.69;;;1.25;82.31
21086;BME280;34247;50.064;19.970;2023-03-03T05:12:44;99523.59;;;1.24;82.33
21086;BME280;34247;50.064;19.970;2023-03-03T05:13:48;99521.00;;;1.24;82.26
21086;BME280;34247;50.064;19.970;2023-03-03T05:14:51;99517.47;;;1.25;82.56
21086;BME280;34247;50.064;19.970;2023-03-03T05:15:56;99519.19;;;1.26;82.15
21086;BME280;34247;50.064;19.970;2023-03-03T05:17:01;99520.13;;;1.23;82.41
21086;BME280;34247;50.064;19.970;2023-03-03T05:18:05;99518.38;;;1.24;82.43
21086;BME280;34247;50.064;19.970;2023-03-03T05:19:08;99523.56;;;1.25;82.35
21086;BME280;34247;50.064;19.970;2023-03-03T05:20:13;99515.66;;;1.27;82.35
21086;BME280;34247;50.064;19.970;2023-03-03T05:21:17;99508.72;;;1.26;82.30
21086;BME280;34247;50.064;19.970;2023-03-03T05:22:21;99510.44;;;1.27;82.17
21086;BME280;34247;50.064;19.970;2023-03-03T05:23:24;99516.50;;;1.27;82.34
21086;BME280;34247;50.064;19.970;2023-03-03T05:24:28;99518.31;;;1.25;82.39
21086;BME280;34247;50.064;19.970;2023-03-03T05:25:32;99520.00;;;1.28;82.44
21086;BME280;34247;50.064;19.970;2023-03-03T05:26:36;99524.38;;;1.27;82.48
21086;BME280;34247;50.064;19.970;2023-03-03T05:27:40;99526.03;;;1.30;82.46
21086;BME280;34247;50.064;19.970;2023-03-03T05:28:44;99517.31;;;1.29;82.60
21086;BME280;34247;50.064;19.970;2023-03-03T05:29:48;99521.69;;;1.30;82.46
21086;BME280;34247;50.064;19.970;2023-03-03T05:30:51;99527.78;;;1.29;82.66
21086;BME280;34247;50.064;19.970;2023-03-03T05:31:56;99524.28;;;1.30;82.61
21086;BME280;34247;50.064;19.970;2023-03-03T05:33:01;99529.53;;;1.30;82.78
21086;BME280;34247;50.064;19.970;2023-03-03T05:34:05;99534.75;;;1.30;82.86
21086;BME280;34247;50.064;19.970;2023-03-03T05:35:09;99533.88;;;1.30;82.72
21086;BME280;34247;50.064;19.970;2023-03-03T05:36:12;99529.53;;;1.30;82.42
21086;BME280;34247;50.064;19.970;2023-03-03T05:37:16;99530.38;;;1.31;82.73
21086;BME280;34247;50.064;19.970;2023-03-03T05:38:21;99532.09;;;1.32;82.75
21086;BME280;34247;50.064;19.970;2023-03-03T05:39:27;99527.78;;;1.29;82.80
21086;BME280;34247;50.064;19.970;2023-03-03T05:40:31;99532.94;;;1.32;82.86
21086;BME280;34247;50.064;19.970;2023-03-03T05:41:35;99534.66;;;1.33;82.99
21086;BME280;34247;50.064;19.970;2023-03-03T05:42:39;99541.59;;;1.34;82.86
21086;BME280;34247;50.064;19.970;2023-03-03T05:43:46;99540.63;;;1.38;82.89
21086;BME280;34247;50.064;19.970;2023-03-03T05:44:50;99542.41;;;1.38;82.92
21086;BME280;34247;50.064;19.970;2023-03-03T05:45:56;99536.25;;;1.39;82.83
21086;BME280;34247;50.064;19.970;2023-03-03T05:47:00;99538.84;;;1.41;83.04
21086;BME280;34247;50.064;19.970;2023-03-03T05:48:07;99539.63;;;1.43;82.76
21086;BME280;34247;50.064;19.970;2023-03-03T05:49:12;99544.00;;;1.42;83.16
21086;BME280;34247;50.064;19.970;2023-03-03T05:50:18;99547.44;;;1.44;83.15
21086;BME280;34247;50.064;19.970;2023-03-03T05:51:22;99547.38;;;1.47;83.08
21086;BME280;34247;50.064;19.970;2023-03-03T05:52:26;99549.94;;;1.49;83.01
21086;BME280;34247;50.064;19.970;2023-03-03T05:53:31;99549.03;;;1.50;83.19
21086;BME280;34247;50.064;19.970;2023-03-03T05:54:35;99553.38;;;1.51;83.04
21086;BME280;34247;50.064;19.970;2023-03-03T05:55:38;99563.81;;;1.51;83.56
21086;BME280;34247;50.064;19.970;2023-03-03T05:56:44;99555.13;;;1.50;83.37
21086;BME280;34247;50.064;19.970;2023-03-03T05:57:48;99551.59;;;1.53;83.40
21086;BME280;34247;50.064;19.970;2023-03-03T05:58:52;99556.72;;;1.56;83.51
21086;BME280;34247;50.064;19.970;2023-03-03T05:59:56;99545.34;;;1.57;83.42
21086;BME280;34247;50.064;19.970;2023-03-03T06:01:00;99553.13;;;1.60;83.42